Time;durP1;ratioP1;P1;durP2;ratioP2;P2;SDS_P1;SDS_P2;PMS_P1;PMS_P2;Temp;Humidity;BMP_temperature;BMP_pressure;BME280_temperature;BME280_humidity;BME280_pressure;Samples;Min_cycle;Max_cycle;Signal;HPM_P1;HPM_P2
2021/12/04 00:00:10;;;;;;;30.63;16.30;;;5.00;99.90;;;;;;5085785;28;20044;-84
2021/12/04 00:02:36;;;;;;;30.60;15.85;;;5.00;99.90;;;;;;5086004;28;20051;-84
2021/12/04 00:05:05;;;;;;;28.00;15.68;;;5.00;99.90;;;;;;5067563;28;20052;-84
2021/12/04 00:07:32;;;;;;;27.20;15.27;;;5.00;99.90;;;;;;5085528;28;20044;-84
2021/12/04 00:10:01;;;;;;;29.27;15.10;;;5.00;99.90;;;;;;5067674;28;20507;-84
2021/12/04 00:12:30;;;;;;;26.92;15.02;;;5.00;99.90;;;;;;5067491;28;20530;-83
2021/12/04 00:14:56;;;;;;;29.27;16.17;;;5.00;99.90;;;;;;5068148;28;20056;-84
2021/12/04 00:17:22;;;;;;;25.92;15.68;;;5.00;99.90;;;;;;5067739;28;20043;-84
2021/12/04 00:19:47;;;;;;;27.50;14.48;;;5.00;99.90;;;;;;5066362;28;20067;-84
2021/12/04 00:22:13;;;;;;;33.08;16.10;;;4.90;99.90;;;;;;5086144;28;20084;-83
2021/12/04 00:24:39;;;;;;;31.27;17.05;;;4.90;99.90;;;;;;5085060;28;20120;-84
2021/12/04 00:27:05;;;;;;;26.73;15.20;;;5.20;99.90;;;;;;5086127;28;20039;-84
2021/12/04 00:29:31;;;;;;;28.52;16.20;;;4.90;99.90;;;;;;5085557;28;20044;-84
2021/12/04 00:32:03;;;;;;;30.25;16.30;;;4.90;99.90;;;;;;5086012;28;20040;-84
2021/12/04 00:34:31;;;;;;;33.55;16.30;;;5.00;99.90;;;;;;5067188;28;20044;-83
2021/12/04 00:50:22;;;;;;;30.92;16.38;;;4.90;99.90;;;;;;5038161;28;20055;-84
2021/12/04 00:52:48;;;;;;;29.27;15.25;;;4.90;99.90;;;;;;5067583;28;20048;-84
2021/12/04 00:55:14;;;;;;;34.30;17.73;;;4.90;99.90;;;;;;5066526;28;20042;-83
2021/12/04 00:57:39;;;;;;;37.72;16.60;;;5.30;99.90;;;;;;5085648;28;20043;-83
2021/12/04 01:00:06;;;;;;;36.40;16.83;;;4.90;99.90;;;;;;5066594;28;20040;-83
2021/12/04 01:02:33;;;;;;;33.78;16.50;;;4.90;99.90;;;;;;5066445;28;20111;-83
2021/12/04 01:04:59;;;;;;;34.55;16.77;;;5.50;99.90;;;;;;5066691;28;20353;-84
2021/12/04 01:07:25;;;;;;;41.08;17.83;;;4.90;99.90;;;;;;5065929;28;20392;-83
2021/12/04 01:09:52;;;;;;;33.63;16.83;;;6.30;99.90;;;;;;5066816;28;20143;-83
2021/12/04 01:12:17;;;;;;;36.58;16.10;;;4.90;99.90;;;;;;5067193;28;20106;-84
2021/12/04 01:14:44;;;;;;;37.85;17.60;;;4.90;99.90;;;;;;5067148;28;20052;-84
2021/12/04 01:17:10;;;;;;;35.72;16.05;;;4.90;99.90;;;;;;5066796;28;20055;-83
2021/12/04 01:19:36;;;;;;;36.30;17.52;;;4.90;99.90;;;;;;5085250;28;20052;-84
2021/12/04 01:22:04;;;;;;;40.38;17.42;;;4.90;99.90;;;;;;5066938;28;20063;-84
2021/12/04 01:24:30;;;;;;;37.85;16.13;;;4.90;99.90;;;;;;5049243;28;20086;-84
2021/12/04 01:26:56;;;;;;;41.03;18.00;;;4.90;99.90;;;;;;5067151;28;20071;-84
2021/12/04 01:29:22;;;;;;;38.08;16.90;;;4.90;99.90;;;;;;5084850;28;20067;-84
2021/12/04 01:31:48;;;;;;;37.83;16.45;;;4.90;99.90;;;;;;5089173;28;20043;-84
2021/12/04 01:34:14;;;;;;;36.75;16.35;;;4.90;99.90;;;;;;5070883;28;20036;-83
2021/12/04 01:36:40;;;;;;;36.05;15.98;;;4.90;99.90;;;;;;5088538;28;20046;-84
2021/12/04 01:39:07;;;;;;;35.92;15.63;;;4.80;99.90;;;;;;5089322;28;20097;-84
2021/12/04 01:41:33;;;;;;;34.53;16.40;;;5.10;99.90;;;;;;5088198;28;20142;-84
2021/12/04 01:44:01;;;;;;;39.08;17.00;;;4.80;99.90;;;;;;5070698;28;20055;-83
2021/12/04 01:46:27;;;;;;;37.47;15.40;;;4.90;99.90;;;;;;5053245;28;20398;-84
2021/12/04 01:48:53;;;;;;;29.63;14.52;;;4.80;99.90;;;;;;5053991;28;20131;-84
2021/12/04 01:51:19;;;;;;;42.58;17.80;;;4.80;99.90;;;;;;5070645;28;20123;-84
2021/12/04 01:53:45;;;;;;;35.55;14.77;;;6.20;99.90;;;;;;5070654;28;20495;-83
2021/12/04 01:56:11;;;;;;;36.08;15.40;;;4.80;99.90;;;;;;5053705;28;20046;-84
2021/12/04 01:58:36;;;;;;;34.47;16.02;;;5.50;99.90;;;;;;5053421;28;20130;-84
2021/12/04 02:01:03;;;;;;;39.58;16.33;;;4.80;99.90;;;;;;5070860;28;20361;-83
2021/12/04 02:03:29;;;;;;;32.22;16.38;;;4.80;99.90;;;;;;5069663;28;20090;-83
2021/12/04 02:05:54;;;;;;;40.13;17.67;;;6.10;99.90;;;;;;5070300;28;20143;-84
2021/12/04 02:08:22;;;;;;;36.45;16.42;;;4.80;99.90;;;;;;5087986;28;20095;-83
2021/12/04 02:10:51;;;;;;;37.03;16.58;;;6.10;99.90;;;;;;5087783;28;20048;-84
2021/12/04 02:13:17;;;;;;;42.78;17.70;;;4.90;99.90;;;;;;5053711;28;20044;-84
2021/12/04 02:15:45;;;;;;;39.35;16.50;;;4.90;99.90;;;;;;5087741;28;20118;-84
2021/12/04 02:18:12;;;;;;;45.53;17.17;;;4.90;99.90;;;;;;5088301;28;20043;-84
2021/12/04 02:20:39;;;;;;;43.83;18.35;;;4.90;99.90;;;;;;5087723;28;20085;-84
2021/12/04 02:23:08;;;;;;;39.10;16.10;;;4.90;99.90;;;;;;5070059;28;20048;-83
2021/12/04 02:25:34;;;;;;;36.75;16.35;;;6.70;99.90;;;;;;5088038;28;20131;-84
2021/12/04 02:28:02;;;;;;;36.03;17.25;;;4.80;99.90;;;;;;5069489;28;20080;-84
2021/12/04 02:30:32;;;;;;;46.03;17.42;;;5.10;99.90;;;;;;5088311;28;20119;-84
2021/12/04 02:32:59;;;;;;;36.55;16.60;;;4.90;99.90;;;;;;5069266;28;20127;-84
2021/12/04 02:35:26;;;;;;;39.90;18.13;;;4.80;99.90;;;;;;5069702;28;20344;-84
2021/12/04 02:37:53;;;;;;;44.78;16.48;;;4.90;99.90;;;;;;5087659;28;20052;-84
2021/12/04 02:40:22;;;;;;;38.25;16.58;;;4.80;99.90;;;;;;5053494;28;20048;-84
2021/12/04 02:42:49;;;;;;;40.50;16.48;;;4.80;99.90;;;;;;5068262;28;20181;-84
2021/12/04 02:45:15;;;;;;;34.30;16.42;;;4.80;99.90;;;;;;5035832;28;20100;-84
2021/12/04 02:47:42;;;;;;;40.17;15.82;;;6.50;99.90;;;;;;5088048;28;20128;-84
2021/12/04 02:50:10;;;;;;;42.92;16.10;;;4.80;99.90;;;;;;5068899;28;20182;-84
2021/12/04 02:52:36;;;;;;;36.70;16.27;;;4.80;99.90;;;;;;5087762;28;20059;-84
2021/12/04 02:55:03;;;;;;;40.67;16.05;;;4.80;99.90;;;;;;5087360;28;20114;-84
2021/12/04 02:57:29;;;;;;;37.40;16.40;;;4.80;99.90;;;;;;5069324;28;20055;-84
2021/12/04 02:59:56;;;;;;;40.53;14.75;;;4.80;99.90;;;;;;5087768;28;20044;-84
2021/12/04 03:02:23;;;;;;;45.67;15.85;;;6.00;99.90;;;;;;5052396;28;20501;-83
2021/12/04 03:04:54;;;;;;;42.08;16.38;;;4.80;99.90;;;;;;5087997;28;20149;-85
2021/12/04 03:07:22;;;;;;;36.20;15.68;;;4.80;99.90;;;;;;5069231;28;20059;-83
2021/12/04 03:09:48;;;;;;;38.22;15.23;;;4.80;99.90;;;;;;5087844;28;20142;-84
2021/12/04 03:12:16;;;;;;;41.00;14.50;;;6.50;99.90;;;;;;5068898;28;20111;-84
2021/12/04 03:14:41;;;;;;;46.33;16.50;;;6.10;99.90;;;;;;5053013;28;20052;-84
2021/12/04 03:17:07;;;;;;;41.17;14.98;;;6.70;99.90;;;;;;5087496;28;20111;-84
2021/12/04 03:19:34;;;;;;;46.42;15.30;;;4.80;99.90;;;;;;5086611;28;20101;-84
2021/12/04 03:22:02;;;;;;;40.42;14.02;;;6.10;99.90;;;;;;5087614;28;20047;-84
2021/12/04 03:24:30;;;;;;;45.58;15.60;;;4.80;99.90;;;;;;5068584;28;20491;-84
2021/12/04 03:26:56;;;;;;;46.65;17.15;;;4.80;99.90;;;;;;5035242;28;20126;-84
2021/12/04 03:29:23;;;;;;;37.33;15.27;;;4.80;99.90;;;;;;5068279;28;20102;-83
2021/12/04 03:43:03;;;;;;;38.58;14.13;;;4.80;99.90;;;;;;5086801;28;20131;-84
2021/12/04 03:45:31;;;;;;;37.40;13.98;;;6.20;99.90;;;;;;5085760;28;20048;-84
2021/12/04 03:48:05;;;;;;;39.85;15.38;;;4.80;99.90;;;;;;5068690;28;20036;-84
2021/12/04 03:50:32;;;;;;;33.72;15.52;;;4.80;99.90;;;;;;5086633;28;20040;-84
2021/12/04 03:52:58;;;;;;;35.55;13.98;;;4.80;99.90;;;;;;5086722;28;20048;-83
2021/12/04 03:55:25;;;;;;;33.50;13.55;;;4.80;99.90;;;;;;5066934;28;20131;-84
2021/12/04 03:57:51;;;;;;;34.50;13.82;;;4.80;99.90;;;;;;5067544;28;20487;-84
2021/12/04 04:00:18;;;;;;;25.85;12.35;;;4.80;99.90;;;;;;5086390;28;20044;-84
2021/12/04 04:02:44;;;;;;;32.00;12.77;;;4.70;99.90;;;;;;5067036;28;20048;-84
2021/12/04 04:05:10;;;;;;;26.65;12.60;;;6.50;99.90;;;;;;5086292;28;20080;-84
2021/12/04 04:07:36;;;;;;;33.53;12.68;;;4.70;99.90;;;;;;5067512;28;20091;-84
2021/12/04 04:10:06;;;;;;;23.80;11.52;;;4.70;99.90;;;;;;5085936;28;20052;-84
2021/12/04 04:12:32;;;;;;;24.10;11.73;;;4.70;99.90;;;;;;5067708;28;20101;-84
2021/12/04 04:14:58;;;;;;;26.83;12.73;;;6.40;99.90;;;;;;5067134;28;20044;-84
2021/12/04 04:17:26;;;;;;;23.23;11.13;;;4.70;99.90;;;;;;5067351;28;20059;-84
2021/12/04 04:19:51;;;;;;;26.38;11.50;;;4.70;99.90;;;;;;5050895;28;20036;-84
2021/12/04 04:22:17;;;;;;;23.38;11.80;;;4.70;99.90;;;;;;5086334;28;20094;-84
2021/12/04 04:24:43;;;;;;;25.10;11.18;;;4.70;99.90;;;;;;5067539;28;20048;-83
2021/12/04 04:27:08;;;;;;;23.65;11.63;;;4.70;99.90;;;;;;5086314;28;20051;-84
2021/12/04 04:29:34;;;;;;;31.08;11.10;;;4.70;99.90;;;;;;5067685;28;20114;-84
2021/12/04 04:32:00;;;;;;;28.58;11.85;;;4.60;99.90;;;;;;5085626;28;20510;-84
2021/12/04 04:34:34;;;;;;;24.63;10.57;;;4.70;99.90;;;;;;5050658;28;20502;-84
2021/12/04 04:37:22;;;;;;;25.67;11.32;;;4.70;99.90;;;;;;5066198;28;20048;-84
2021/12/04 05:13:18;;;;;;;28.98;10.57;;;4.70;99.90;;;;;;5013035;28;20126;-84
2021/12/04 05:20:53;;;;;;;30.15;10.88;;;4.70;99.90;;;;;;5085176;28;20048;-84
2021/12/04 05:23:21;;;;;;;22.60;9.60;;;4.60;99.90;;;;;;5050827;28;20537;-84
2021/12/04 05:25:47;;;;;;;23.05;10.38;;;4.70;99.90;;;;;;5066692;28;20055;-84
2021/12/04 05:28:12;;;;;;;27.48;10.70;;;4.70;99.90;;;;;;5066274;28;20043;-84
2021/12/04 05:30:38;;;;;;;30.55;11.40;;;4.60;99.90;;;;;;5085309;28;20052;-84
2021/12/04 05:33:05;;;;;;;20.88;10.13;;;6.40;99.90;;;;;;5066382;28;20047;-84
2021/12/04 05:35:32;;;;;;;19.00;8.80;;;4.70;99.90;;;;;;5066708;28;20058;-84
2021/12/04 05:37:58;;;;;;;26.77;11.18;;;4.70;99.90;;;;;;5066793;28;20052;-84
2021/12/04 05:40:23;;;;;;;28.58;10.38;;;4.70;99.90;;;;;;5066581;28;20043;-84
2021/12/04 05:42:49;;;;;;;21.73;9.40;;;4.60;99.90;;;;;;5066173;28;20044;-84
2021/12/04 05:45:22;;;;;;;27.40;10.18;;;5.60;99.90;;;;;;5083764;28;20047;-84
2021/12/04 05:47:56;;;;;;;23.00;10.05;;;4.60;99.90;;;;;;5085251;28;20395;-84
2021/12/04 05:55:20;;;;;;;21.23;9.00;;;6.10;99.90;;;;;;5084623;28;20047;-84
2021/12/04 05:57:46;;;;;;;22.98;9.93;;;4.60;99.90;;;;;;5049259;28;20604;-84
2021/12/04 06:00:21;;;;;;;19.70;10.07;;;4.60;99.90;;;;;;5084936;28;20043;-84
2021/12/04 06:02:47;;;;;;;19.60;9.48;;;4.60;99.90;;;;;;5065870;28;20585;-83
2021/12/04 06:05:13;;;;;;;25.77;10.00;;;4.60;99.90;;;;;;5067097;28;20039;-84
2021/12/04 06:07:40;;;;;;;23.85;9.73;;;4.60;99.90;;;;;;5084834;28;20040;-84
2021/12/04 06:10:07;;;;;;;21.58;9.20;;;4.60;99.90;;;;;;5084359;28;20056;-83
2021/12/04 06:12:33;;;;;;;20.67;9.75;;;4.60;99.90;;;;;;5084650;28;20109;-83
2021/12/04 06:14:59;;;;;;;25.45;9.85;;;4.60;99.90;;;;;;5065967;28;20040;-84
2021/12/04 06:17:28;;;;;;;20.02;9.45;;;4.60;99.90;;;;;;5067904;28;20055;-83
2021/12/04 06:22:43;;;;;;;20.88;8.30;;;4.60;99.90;;;;;;5070087;28;20048;-84
2021/12/04 06:25:15;;;;;;;22.75;10.30;;;2.80;99.90;;;;;;5088111;28;20616;-84
2021/12/04 06:27:42;;;;;;;23.55;9.48;;;4.50;99.90;;;;;;5069087;28;20048;-84
2021/12/04 06:30:11;;;;;;;18.77;9.18;;;4.50;99.90;;;;;;5088091;28;20052;-84
2021/12/04 06:32:37;;;;;;;25.80;9.02;;;4.60;99.90;;;;;;5087603;28;20044;-84
2021/12/04 06:35:06;;;;;;;18.92;9.45;;;4.60;99.90;;;;;;5088523;28;20165;-84
2021/12/04 06:37:32;;;;;;;24.33;9.68;;;4.60;99.90;;;;;;5087883;28;20087;-84
2021/12/04 06:39:58;;;;;;;21.30;10.05;;;4.80;99.90;;;;;;5069510;28;20079;-84
2021/12/04 06:42:24;;;;;;;21.13;10.48;;;4.60;99.90;;;;;;5087498;28;20051;-84
2021/12/04 06:44:52;;;;;;;23.05;9.57;;;4.60;99.90;;;;;;5069130;28;20066;-84
2021/12/04 06:47:18;;;;;;;19.15;9.40;;;4.60;99.90;;;;;;5053234;28;20059;-84
2021/12/04 06:49:44;;;;;;;21.95;9.43;;;4.60;99.90;;;;;;5087531;28;20043;-84
2021/12/04 06:52:16;;;;;;;24.05;9.82;;;4.60;99.90;;;;;;5069607;28;20052;-84
2021/12/04 06:54:50;;;;;;;23.92;10.18;;;4.40;99.90;;;;;;5069841;28;20074;-84
2021/12/04 06:57:17;;;;;;;21.85;9.35;;;4.60;99.90;;;;;;5087823;28;20112;-83
2021/12/04 06:59:45;;;;;;;25.63;10.07;;;4.60;99.90;;;;;;5069257;28;20496;-84
2021/12/04 07:02:10;;;;;;;26.40;9.27;;;4.60;99.90;;;;;;5086956;28;20391;-84
2021/12/04 07:04:37;;;;;;;20.23;9.40;;;4.60;99.90;;;;;;5052550;28;20040;-83
2021/12/04 07:07:05;;;;;;;24.42;9.63;;;4.60;99.90;;;;;;5087203;28;20119;-84
2021/12/04 07:09:31;;;;;;;22.67;10.18;;;4.60;99.90;;;;;;5069233;28;20087;-83
2021/12/04 07:11:59;;;;;;;19.08;8.98;;;4.60;99.90;;;;;;5052538;28;20411;-82
2021/12/04 07:14:25;;;;;;;22.20;9.73;;;4.60;99.90;;;;;;5087440;28;20517;-83
2021/12/04 07:16:51;;;;;;;26.30;10.07;;;4.60;99.90;;;;;;5087431;28;20606;-83
2021/12/04 07:19:17;;;;;;;23.08;10.48;;;4.60;99.90;;;;;;5086573;28;20083;-83
2021/12/04 07:21:45;;;;;;;22.05;9.50;;;4.60;99.90;;;;;;5087335;28;20043;-83
2021/12/04 07:24:12;;;;;;;21.27;9.05;;;4.60;99.90;;;;;;5068248;28;20132;-84
2021/12/04 07:26:37;;;;;;;24.33;10.20;;;6.60;99.90;;;;;;5087487;28;20098;-85
2021/12/04 07:29:04;;;;;;;29.02;10.57;;;4.70;99.90;;;;;;5068813;28;20036;-85
2021/12/04 07:31:30;;;;;;;27.70;9.77;;;4.60;99.90;;;;;;5087044;28;20070;-90
2021/12/04 07:33:57;;;;;;;26.30;10.52;;;4.60;99.90;;;;;;5052734;28;20083;-84
2021/12/04 07:36:23;;;;;;;24.88;10.35;;;4.60;99.90;;;;;;5068040;28;20070;-83
2021/12/04 07:38:49;;;;;;;25.98;11.20;;;4.60;99.90;;;;;;5087230;28;20450;-85
2021/12/04 07:41:15;;;;;;;23.38;9.88;;;4.60;99.90;;;;;;5087378;28;20423;-86
2021/12/04 07:43:41;;;;;;;23.67;10.13;;;4.60;99.90;;;;;;5068888;28;20071;-85
2021/12/04 07:46:07;;;;;;;27.27;10.27;;;4.60;99.90;;;;;;5068945;28;20050;-85
2021/12/04 07:48:33;;;;;;;26.30;9.98;;;5.10;99.90;;;;;;5087729;28;20479;-87
2021/12/04 07:51:01;;;;;;;26.60;10.10;;;6.20;99.90;;;;;;5051898;28;20055;-85
2021/12/04 07:53:31;;;;;;;27.27;10.45;;;4.60;99.90;;;;;;5085894;28;20443;-84
2021/12/04 07:55:58;;;;;;;28.60;10.65;;;4.60;99.90;;;;;;5086892;28;20051;-83
2021/12/04 07:58:23;;;;;;;22.80;9.27;;;4.60;99.90;;;;;;5085997;28;20117;-83
2021/12/04 08:00:49;;;;;;;22.67;9.98;;;4.60;99.90;;;;;;5086604;28;20076;-85
2021/12/04 08:03:15;;;;;;;26.27;10.57;;;4.60;99.90;;;;;;5086236;28;20048;-84
2021/12/04 08:05:43;;;;;;;26.63;10.45;;;4.60;99.90;;;;;;5068076;28;20048;-83
2021/12/04 08:08:09;;;;;;;25.77;9.80;;;4.60;99.90;;;;;;5067829;28;20036;-84
2021/12/04 08:10:36;;;;;;;30.98;10.68;;;4.70;99.90;;;;;;5085179;28;20422;-83
2021/12/04 08:13:03;;;;;;;24.15;10.20;;;4.60;99.90;;;;;;5068180;28;20441;-83
2021/12/04 08:15:29;;;;;;;22.25;10.32;;;4.70;99.90;;;;;;5051019;28;20570;-82
2021/12/04 08:17:55;;;;;;;27.20;10.30;;;4.60;99.90;;;;;;5067874;28;20495;-82
2021/12/04 08:20:21;;;;;;;23.83;9.85;;;4.70;99.90;;;;;;5050457;28;20047;-84
2021/12/04 08:22:47;;;;;;;17.75;9.07;;;4.70;99.90;;;;;;5051014;28;20189;-80
2021/12/04 08:25:16;;;;;;;27.70;11.35;;;4.70;99.90;;;;;;5067819;28;20052;-80
2021/12/04 08:27:43;;;;;;;24.50;9.65;;;4.90;99.90;;;;;;5067179;28;20506;-80
2021/12/04 08:30:13;;;;;;;22.27;10.27;;;4.70;99.90;;;;;;5067668;28;20052;-81
2021/12/04 08:32:39;;;;;;;19.65;9.68;;;4.70;99.90;;;;;;5066995;28;20483;-82
2021/12/04 08:35:08;;;;;;;21.38;10.02;;;4.70;99.90;;;;;;5067625;28;20052;-82
2021/12/04 08:37:34;;;;;;;23.73;9.52;;;4.70;99.90;;;;;;5085680;28;20058;-81
2021/12/04 08:40:00;;;;;;;21.10;10.07;;;4.90;99.90;;;;;;5066655;28;20044;-83
2021/12/04 08:42:26;;;;;;;20.67;9.40;;;4.60;99.90;;;;;;5085734;28;20040;-83
2021/12/04 08:44:52;;;;;;;22.38;9.95;;;4.70;99.90;;;;;;5066688;28;20051;-83
2021/12/04 08:47:19;;;;;;;21.42;9.60;;;5.40;99.90;;;;;;5067456;28;20074;-83
2021/12/04 08:49:45;;;;;;;19.52;8.85;;;4.70;99.90;;;;;;5085057;28;20050;-82
2021/12/04 08:52:11;;;;;;;25.75;10.13;;;6.50;99.90;;;;;;5067522;28;20043;-82
2021/12/04 08:54:38;;;;;;;21.35;9.02;;;4.70;99.90;;;;;;5085052;28;20044;-83
2021/12/04 08:57:04;;;;;;;18.58;9.32;;;4.70;99.90;;;;;;5085335;28;20059;-85
2021/12/04 08:59:33;;;;;;;24.50;9.13;;;4.70;99.90;;;;;;5067195;28;20506;-86
2021/12/04 09:02:00;;;;;;;15.77;8.32;;;4.70;99.90;;;;;;5050226;28;20132;-86
2021/12/04 09:04:29;;;;;;;21.25;8.75;;;4.70;99.90;;;;;;5051161;28;20059;-88
2021/12/04 09:06:56;;;;;;;19.90;8.98;;;4.70;99.90;;;;;;5050765;28;20044;-87
2021/12/04 09:09:23;;;;;;;16.77;9.02;;;6.20;99.90;;;;;;5034748;28;20410;-84
2021/12/04 09:11:56;;;;;;;18.50;9.27;;;4.70;99.90;;;;;;5067249;28;20091;-85
2021/12/04 09:14:25;;;;;;;16.27;8.52;;;4.70;99.90;;;;;;5066789;28;20437;-84
2021/12/04 09:16:53;;;;;;;20.35;9.27;;;4.70;99.90;;;;;;5049886;28;20131;-84
2021/12/04 09:19:21;;;;;;;18.02;9.50;;;4.70;99.90;;;;;;5085084;28;20526;-86
2021/12/04 09:21:47;;;;;;;22.23;8.73;;;6.50;99.90;;;;;;5067767;28;20372;-88
2021/12/04 09:24:15;;;;;;;15.23;7.60;;;6.50;99.90;;;;;;5051325;28;20051;-88
2021/12/04 09:29:50;;;;;;;12.93;6.35;;;4.80;99.90;;;;;;5068564;28;20047;-86
2021/12/04 09:59:15;;;;;;;15.85;7.45;;;4.80;99.90;;;;;;5087791;28;20055;-85
2021/12/04 10:23:51;;;;;;;11.30;6.30;;;5.10;99.90;;;;;;5071935;28;20052;-86
2021/12/04 10:34:37;;;;;;;11.27;5.53;;;5.20;99.90;;;;;;5073750;28;20048;-86
2021/12/04 10:37:08;;;;;;;10.23;7.07;;;5.20;99.90;;;;;;5072535;28;20051;-87
2021/12/04 10:39:35;;;;;;;12.15;7.05;;;5.30;99.90;;;;;;5059214;28;20497;-86
2021/12/04 10:42:06;;;;;;;10.82;6.85;;;5.30;99.90;;;;;;5055562;28;20131;-86
2021/12/04 10:44:37;;;;;;;11.35;6.75;;;5.30;99.90;;;;;;5056267;28;20040;-86
2021/12/04 10:47:12;;;;;;;11.95;6.70;;;5.90;99.90;;;;;;5055740;28;20107;-87
2021/12/04 10:50:05;;;;;;;10.75;6.15;;;6.90;99.90;;;;;;5056413;28;20040;-85
2021/12/04 10:55:25;;;;;;;9.43;6.45;;;5.50;99.90;;;;;;5072488;28;20002;-87
2021/12/04 11:01:13;;;;;;;9.25;5.65;;;6.00;99.90;;;;;;5074615;28;20116;-86
2021/12/04 11:03:44;;;;;;;11.93;6.53;;;5.50;99.90;;;;;;5071730;28;20089;-86
2021/12/04 11:26:24;;;;;;;10.38;6.97;;;5.00;99.90;;;;;;5075157;28;20048;-90
2021/12/04 11:42:40;;;;;;;8.48;5.55;;;5.70;99.90;;;;;;5060450;28;20044;-92
2021/12/04 11:45:39;;;;;;;10.05;6.28;;;6.30;99.90;;;;;;5029129;28;20128;-91
2021/12/04 11:47:59;;;;;;;16.48;6.85;;;5.60;99.90;;;;;;5058470;28;20112;-90
2021/12/04 11:50:31;;;;;;;10.05;5.57;;;5.70;99.90;;;;;;5041501;28;20053;-90
2021/12/04 11:53:03;;;;;;;13.97;7.00;;;5.70;99.90;;;;;;5039263;28;20083;-89
2021/12/04 11:55:35;;;;;;;11.50;6.22;;;5.70;99.90;;;;;;5054606;28;20048;-90
2021/12/04 11:58:02;;;;;;;10.85;5.93;;;5.70;99.90;;;;;;5038412;28;20427;-91
2021/12/04 12:00:35;;;;;;;9.60;5.75;;;5.70;99.90;;;;;;5004873;28;20087;-92
2021/12/04 12:03:12;;;;;;;;;;;7.50;99.90;;;;;;5039840;28;20049;-92
2021/12/04 12:05:51;;;;;;;12.25;5.65;;;5.70;99.90;;;;;;5038856;28;20390;-93
2021/12/04 12:08:29;;;;;;;8.45;5.45;;;5.70;99.90;;;;;;5036606;28;20048;-94
2021/12/04 12:11:03;;;;;;;9.57;6.03;;;5.70;99.90;;;;;;5036712;28;20094;-91
2021/12/04 12:13:36;;;;;;;8.52;5.53;;;5.70;99.90;;;;;;5036929;28;20041;-90
2021/12/04 12:16:19;;;;;;;8.55;5.65;;;5.70;99.90;;;;;;5035804;28;20040;-87
2021/12/04 12:18:53;;;;;;;11.05;5.75;;;5.70;99.90;;;;;;5037342;28;20052;-93
2021/12/04 12:21:28;;;;;;;13.23;6.43;;;5.70;99.90;;;;;;5036545;28;20036;-96
2021/12/04 12:32:53;;;;;;;15.60;7.38;;;5.60;99.90;;;;;;5058082;28;20049;-93
2021/12/04 12:38:11;;;;;;;12.30;6.97;;;5.60;99.90;;;;;;5058680;28;20045;-92
2021/12/04 12:40:37;;;;;;;14.02;7.13;;;6.30;99.90;;;;;;5030601;28;20041;-93
2021/12/04 12:43:14;;;;;;;12.13;6.88;;;5.60;99.90;;;;;;5042991;28;20079;-92
2021/12/04 12:45:50;;;;;;;14.50;7.13;;;5.70;99.90;;;;;;5023703;28;20055;-93
2021/12/04 12:48:16;;;;;;;16.60;7.22;;;5.70;99.90;;;;;;5035865;28;20044;-92
2021/12/04 12:50:43;;;;;;;16.77;8.07;;;5.70;99.90;;;;;;5018373;28;20369;-89
2021/12/04 12:53:34;;;;;;;20.17;7.72;;;6.90;99.90;;;;;;5053057;28;20044;-94
2021/12/04 12:56:08;;;;;;;15.02;7.65;;;5.70;99.90;;;;;;5036722;28;20287;-93
2021/12/04 12:58:56;;;;;;;14.63;7.68;;;5.70;99.90;;;;;;5044074;28;20554;-95
2021/12/04 13:12:50;;;;;;;15.52;8.35;;;5.60;99.90;;;;;;5055968;28;20066;-90
2021/12/04 13:15:34;;;;;;;16.02;8.20;;;5.60;99.90;;;;;;5037157;28;20033;-86
2021/12/04 13:18:22;;;;;;;18.02;9.05;;;5.50;99.90;;;;;;5051483;28;20546;-90
2021/12/04 13:20:51;;;;;;;17.98;8.65;;;5.50;99.90;;;;;;5036435;28;20048;-92
2021/12/04 13:23:20;;;;;;;18.00;9.05;;;5.50;99.90;;;;;;5020023;28;20098;-92
2021/12/04 13:25:56;;;;;;;18.60;8.93;;;5.50;99.90;;;;;;5039142;28;20041;-92
2021/12/04 13:28:24;;;;;;;15.88;9.27;;;5.50;99.90;;;;;;5036870;28;20594;-92
2021/12/04 13:30:50;;;;;;;19.13;8.80;;;7.20;99.90;;;;;;5037581;28;20123;-92
2021/12/04 13:33:21;;;;;;;21.77;9.63;;;5.50;99.90;;;;;;5022066;28;20040;-93
2021/12/04 13:35:47;;;;;;;18.30;9.77;;;5.50;99.90;;;;;;5037309;28;20052;-91
2021/12/04 13:38:19;;;;;;;15.70;8.93;;;5.50;99.90;;;;;;5008702;28;20045;-92
2021/12/04 13:40:49;;;;;;;17.73;9.57;;;7.30;99.90;;;;;;5019609;28;20492;-94
2021/12/04 13:43:18;;;;;;;19.65;10.07;;;5.50;99.90;;;;;;5037504;28;20074;-93
2021/12/04 13:45:45;;;;;;;19.50;9.63;;;5.50;99.90;;;;;;5019254;28;20055;-92
2021/12/04 13:48:11;;;;;;;21.20;10.82;;;6.50;99.90;;;;;;5019943;28;20467;-92
2021/12/04 13:53:31;;;;;;;18.23;9.90;;;6.30;99.90;;;;;;5036641;28;20111;-91
2021/12/04 13:56:11;;;;;;;25.00;11.70;;;5.50;99.90;;;;;;5054149;28;20041;-92
2021/12/04 13:58:50;;;;;;;23.52;11.02;;;5.50;99.90;;;;;;5036215;28;20040;-92
2021/12/04 14:01:16;;;;;;;23.98;10.85;;;5.50;99.90;;;;;;5072093;28;20040;-92
2021/12/04 14:03:43;;;;;;;33.33;12.18;;;5.60;99.90;;;;;;5052537;28;20048;-93
2021/12/04 14:06:11;;;;;;;24.33;11.68;;;7.00;99.90;;;;;;5071908;28;20642;-92
2021/12/04 14:08:37;;;;;;;23.92;11.30;;;5.50;99.90;;;;;;5053936;28;20045;-92
2021/12/04 14:11:04;;;;;;;20.95;10.45;;;5.50;99.90;;;;;;5053770;28;20041;-91
2021/12/04 14:13:30;;;;;;;23.52;11.43;;;4.40;99.90;;;;;;5023018;28;20122;-91
2021/12/04 14:15:55;;;;;;;23.17;11.95;;;5.50;99.90;;;;;;5021536;28;20044;-91
2021/12/04 14:18:23;;;;;;;25.23;11.25;;;5.50;99.90;;;;;;5055650;28;20051;-91
2021/12/04 14:20:57;;;;;;;26.40;11.85;;;5.70;99.90;;;;;;5053581;28;20059;-91
2021/12/04 14:23:28;;;;;;;26.35;12.07;;;5.50;99.90;;;;;;5056681;28;20087;-91
2021/12/04 14:25:54;;;;;;;26.50;10.35;;;5.70;99.90;;;;;;5072760;28;20219;-89
2021/12/04 14:28:26;;;;;;;25.77;11.40;;;5.50;99.90;;;;;;5055116;28;20072;-89
2021/12/04 14:30:52;;;;;;;27.45;11.38;;;6.30;99.90;;;;;;5038578;28;20044;-91
2021/12/04 14:33:22;;;;;;;30.60;12.25;;;5.50;99.90;;;;;;5067279;28;20051;-93
2021/12/04 14:35:50;;;;;;;26.65;11.13;;;6.20;99.90;;;;;;5065367;28;20041;-92
2021/12/04 14:38:19;;;;;;;30.25;12.70;;;5.50;99.90;;;;;;5065935;28;20048;-92
2021/12/04 14:41:04;;;;;;;30.75;14.15;;;5.50;99.90;;;;;;5069142;28;20040;-91
2021/12/04 14:43:37;;;;;;;24.77;11.93;;;5.50;99.90;;;;;;5051587;28;20056;-92
2021/12/04 14:46:07;;;;;;;29.70;12.73;;;5.50;99.90;;;;;;5068871;28;20044;-93
2021/12/04 14:48:40;;;;;;;30.90;12.98;;;5.50;99.90;;;;;;5035602;28;20047;-92
2021/12/04 14:51:14;;;;;;;33.17;14.05;;;5.90;99.90;;;;;;5051069;28;20127;-92
2021/12/04 14:53:47;;;;;;;36.58;14.38;;;5.50;99.90;;;;;;5069988;28;20225;-92
2021/12/04 14:56:15;;;;;;;32.50;13.80;;;5.50;99.90;;;;;;5069034;28;20045;-93
2021/12/04 14:58:41;;;;;;;30.00;13.43;;;6.70;99.90;;;;;;5069602;28;20051;-94
2021/12/04 15:01:11;;;;;;;30.67;15.15;;;6.40;99.90;;;;;;5037104;28;20127;-93
2021/12/04 15:03:40;;;;;;;41.08;14.48;;;5.40;99.90;;;;;;5052063;28;20040;-94
2021/12/04 15:06:08;;;;;;;35.97;14.77;;;5.40;99.90;;;;;;5035487;28;20054;-94
2021/12/04 15:08:38;;;;;;;29.73;13.02;;;6.90;99.90;;;;;;5074007;28;20049;-94
2021/12/04 15:11:16;;;;;;;29.50;13.57;;;5.40;99.90;;;;;;5055494;28;20048;-93
2021/12/04 15:13:57;;;;;;;37.30;13.45;;;5.40;99.90;;;;;;5058239;28;20543;-94
2021/12/04 15:19:14;;;;;;;33.65;13.35;;;5.40;99.90;;;;;;5076994;28;20056;-92
2021/12/04 15:21:47;;;;;;;29.58;12.98;;;5.40;99.90;;;;;;5059241;28;20059;-91
2021/12/04 15:24:22;;;;;;;37.75;13.98;;;5.40;99.90;;;;;;5059100;28;20044;-93
2021/12/04 15:26:53;;;;;;;34.58;15.13;;;5.40;99.90;;;;;;5059302;28;20053;-92
2021/12/04 15:29:25;;;;;;;31.23;13.60;;;5.40;99.90;;;;;;5040062;28;20045;-90
2021/12/04 15:31:54;;;;;;;37.78;14.70;;;5.40;99.90;;;;;;5053736;28;20037;-89
2021/12/04 15:34:45;;;;;;;32.10;13.90;;;5.30;99.90;;;;;;5052658;28;20399;-91
2021/12/04 15:37:12;;;;;;;36.47;14.60;;;5.50;99.90;;;;;;5034396;28;20428;-92
2021/12/04 15:39:43;;;;;;;37.13;15.20;;;5.40;99.90;;;;;;5068261;28;20135;-91
2021/12/04 15:44:50;;;;;;;30.33;14.05;;;4.00;99.90;;;;;;5050048;28;20057;-92
2021/12/04 15:50:19;;;;;;;33.80;14.52;;;5.30;99.90;;;;;;5049776;28;20056;-92
2021/12/04 15:53:04;;;;;;;35.85;15.18;;;6.70;99.90;;;;;;5054667;28;20052;-92
2021/12/04 15:55:35;;;;;;;36.50;14.57;;;5.30;99.90;;;;;;5070192;28;20404;-94
2021/12/04 15:58:04;;;;;;;38.13;15.18;;;5.30;99.90;;;;;;5054720;28;20072;-94
2021/12/04 16:00:35;;;;;;;32.03;15.07;;;5.30;99.90;;;;;;5052292;28;20047;-94
2021/12/04 16:03:04;;;;;;;39.00;15.75;;;5.30;99.90;;;;;;5050416;28;20338;-94
2021/12/04 16:05:33;;;;;;;32.47;14.98;;;6.00;99.90;;;;;;5018272;28;20094;-93
2021/12/04 16:08:17;;;;;;;38.17;15.02;;;5.30;99.90;;;;;;5070251;28;20032;-94
2021/12/04 16:10:45;;;;;;;36.65;15.50;;;5.30;99.90;;;;;;5035365;28;20055;-93
2021/12/04 16:13:23;;;;;;;33.38;15.13;;;5.30;99.90;;;;;;5051912;28;20048;-93